Time;durP1;ratioP1;P1;durP2;ratioP2;P2;SDS_P1;SDS_P2;PMS_P1;PMS_P2;Temp;Humidity;BMP_temperature;BMP_pressure;BME280_temperature;BME280_humidity;BME280_pressure;Samples;Min_cycle;Max_cycle;Signal;HPM_P1;HPM_P2
2023/12/21 00:01:54;;;;;;;;;;;17.60;48.50;;;;;;1596908;73;751;-72
2023/12/21 00:03:56;;;;;;;;;;;17.60;48.50;;;;;;1598593;73;1188;-69
2023/12/21 00:05:57;;;;;;;;;;;17.60;48.50;;;;;;1610319;73;777;-73
2023/12/21 00:07:59;;;;;;;;;;;17.60;48.50;;;;;;1596311;73;766;-69
2023/12/21 00:10:01;;;;;;;;;;;17.60;48.40;;;;;;1594097;73;750;-71
2023/12/21 00:12:03;;;;;;;;;;;17.60;48.50;;;;;;1607151;73;770;-72
2023/12/21 00:14:05;;;;;;;;;;;17.60;48.40;;;;;;1599171;73;1215;-71
2023/12/21 00:16:07;;;;;;;;;;;17.60;48.40;;;;;;1590260;73;723;-70
2023/12/21 00:18:09;;;;;;;;;;;17.60;48.40;;;;;;1603762;73;806;-72
2023/12/21 00:20:11;;;;;;;;;;;17.60;48.40;;;;;;1619166;73;1929;-73
2023/12/21 00:22:13;;;;;;;;;;;17.60;48.40;;;;;;1607776;73;784;-70
2023/12/21 00:24:14;;;;;;;;;;;17.60;48.40;;;;;;1601907;73;1168;-72
2023/12/21 00:26:16;;;;;;;;;;;17.60;48.40;;;;;;1608649;73;769;-73
2023/12/21 00:28:18;;;;;;;;;;;17.60;48.40;;;;;;1604686;73;798;-69
2023/12/21 00:30:20;;;;;;;;;;;17.60;48.40;;;;;;1598839;73;803;-70
2023/12/21 00:32:22;;;;;;;;;;;17.60;48.40;;;;;;1610829;73;781;-72
2023/12/21 00:34:24;;;;;;;;;;;17.60;48.40;;;;;;1606833;73;1108;-70
2023/12/21 00:36:26;;;;;;;;;;;17.60;48.40;;;;;;1596614;73;748;-73
2023/12/21 00:38:27;;;;;;;;;;;17.60;48.40;;;;;;1605274;73;760;-72
2023/12/21 00:40:29;;;;;;;;;;;17.60;48.40;;;;;;1611901;73;1939;-67
2023/12/21 00:42:38;;;;;;;;;;;17.50;48.40;;;;;;1597566;73;763;-71
2023/12/21 00:44:35;;;;;;;;;;;17.60;48.40;;;;;;1598648;73;1560;-71
2023/12/21 00:46:37;;;;;;;;;;;17.60;48.40;;;;;;1599688;73;768;-72
2023/12/21 00:48:39;;;;;;;;;;;17.60;48.40;;;;;;1615782;73;683;-72
2023/12/21 00:50:41;;;;;;;;;;;17.60;48.40;;;;;;1608515;73;800;-72
2023/12/21 00:52:43;;;;;;;;;;;17.60;48.40;;;;;;1602786;73;1521;-71
2023/12/21 00:54:44;;;;;;;;;;;17.60;48.40;;;;;;1610288;73;1152;-71
2023/12/21 00:56:46;;;;;;;;;;;17.60;48.40;;;;;;1606269;73;766;-71
2023/12/21 00:58:48;;;;;;;;;;;17.60;48.40;;;;;;1606780;73;748;-71
2023/12/21 01:00:50;;;;;;;;;;;17.60;48.40;;;;;;1612659;73;1932;-71
2023/12/21 01:02:52;;;;;;;;;;;17.60;48.40;;;;;;1613607;73;765;-73
2023/12/21 01:04:54;;;;;;;;;;;17.60;48.30;;;;;;1598141;73;1144;-72
2023/12/21 01:06:56;;;;;;;;;;;17.60;48.30;;;;;;1611094;73;773;-72
2023/12/21 01:08:58;;;;;;;;;;;17.60;48.40;;;;;;1611349;73;760;-71
2023/12/21 01:11:00;;;;;;;;;;;17.60;48.40;;;;;;1603891;73;677;-71
2023/12/21 01:13:02;;;;;;;;;;;17.60;48.30;;;;;;1604923;73;746;-70
2023/12/21 01:15:04;;;;;;;;;;;17.60;48.30;;;;;;1594683;73;1227;-69
2023/12/21 01:17:06;;;;;;;;;;;17.60;48.30;;;;;;1603474;73;767;-74
2023/12/21 01:19:08;;;;;;;;;;;17.60;48.40;;;;;;1595628;73;782;-69
2023/12/21 01:21:10;;;;;;;;;;;17.60;48.30;;;;;;1597439;73;1929;-71
2023/12/21 01:23:12;;;;;;;;;;;17.60;48.30;;;;;;1599315;73;675;-70
2023/12/21 01:25:14;;;;;;;;;;;17.60;48.30;;;;;;1590443;73;1190;-73
2023/12/21 01:27:16;;;;;;;;;;;17.60;48.30;;;;;;1603549;73;868;-69
2023/12/21 01:29:17;;;;;;;;;;;17.60;48.30;;;;;;1600273;73;767;-72
2023/12/21 01:31:19;;;;;;;;;;;17.60;48.20;;;;;;1598490;73;795;-72
2023/12/21 01:33:21;;;;;;;;;;;17.50;48.30;;;;;;1598313;73;1124;-72
2023/12/21 01:35:23;;;;;;;;;;;17.60;48.30;;;;;;1603572;73;793;-74
2023/12/21 01:37:25;;;;;;;;;;;17.60;48.20;;;;;;1599867;73;808;-72
2023/12/21 01:39:27;;;;;;;;;;;17.60;48.20;;;;;;1601809;73;814;-73
2023/12/21 01:41:29;;;;;;;;;;;17.60;48.20;;;;;;1602635;73;1930;-72
2023/12/21 01:43:31;;;;;;;;;;;17.60;48.20;;;;;;1613135;73;1162;-70
2023/12/21 01:45:32;;;;;;;;;;;17.60;48.20;;;;;;1602187;73;783;-72
2023/12/21 01:47:34;;;;;;;;;;;17.50;48.20;;;;;;1597143;73;1483;-72
2023/12/21 01:49:36;;;;;;;;;;;17.60;48.20;;;;;;1612464;73;740;-73
2023/12/21 01:51:38;;;;;;;;;;;17.60;48.20;;;;;;1602605;73;771;-69
2023/12/21 01:53:40;;;;;;;;;;;17.60;48.20;;;;;;1602338;73;1145;-72
2023/12/21 01:55:42;;;;;;;;;;;17.60;48.10;;;;;;1601409;73;699;-69
2023/12/21 01:57:44;;;;;;;;;;;17.60;48.20;;;;;;1607744;73;772;-71
2023/12/21 01:59:45;;;;;;;;;;;17.60;48.20;;;;;;1610387;73;764;-73
2023/12/21 02:01:47;;;;;;;;;;;17.60;48.20;;;;;;1584111;73;1937;-71
2023/12/21 02:03:49;;;;;;;;;;;17.60;48.10;;;;;;1592904;73;1219;-72
2023/12/21 02:05:51;;;;;;;;;;;17.50;48.20;;;;;;1605208;73;728;-68
2023/12/21 02:07:53;;;;;;;;;;;17.60;48.20;;;;;;1609457;73;720;-70
2023/12/21 02:09:55;;;;;;;;;;;17.60;48.20;;;;;;1620446;73;778;-72
2023/12/21 02:11:57;;;;;;;;;;;17.50;48.10;;;;;;1598402;73;767;-72
2023/12/21 02:13:59;;;;;;;;;;;17.60;48.20;;;;;;1595449;73;1212;-71
2023/12/21 02:16:03;;;;;;;;;;;17.60;48.20;;;;;;1599068;73;764;-72
2023/12/21 02:18:05;;;;;;;;;;;17.50;48.10;;;;;;1611011;72;1421;-72
2023/12/21 02:20:07;;;;;;;;;;;17.60;48.10;;;;;;1591822;73;732;-73
2023/12/21 02:22:10;;;;;;;;;;;17.60;48.10;;;;;;1599821;73;1936;-72
2023/12/21 02:24:14;;;;;;;;;;;17.50;48.10;;;;;;1593771;73;1187;-73
2023/12/21 02:26:18;;;;;;;;;;;17.60;48.10;;;;;;1602896;73;912;-70
2023/12/21 02:28:19;;;;;;;;;;;17.60;48.10;;;;;;1605773;73;1493;-72
2023/12/21 02:30:21;;;;;;;;;;;17.60;48.10;;;;;;1594123;73;780;-71
2023/12/21 02:32:23;;;;;;;;;;;17.60;48.20;;;;;;1598820;73;765;-70
2023/12/21 02:34:24;;;;;;;;;;;17.60;48.10;;;;;;1606312;73;1164;-72
2023/12/21 02:36:26;;;;;;;;;;;17.60;48.10;;;;;;1602285;73;755;-73
2023/12/21 02:38:28;;;;;;;;;;;17.50;48.10;;;;;;1602275;73;739;-72
2023/12/21 02:40:30;;;;;;;;;;;17.50;48.10;;;;;;1589851;73;776;-72
2023/12/21 02:42:32;;;;;;;;;;;17.60;48.10;;;;;;1612705;73;1925;-74
2023/12/21 02:44:34;;;;;;;;;;;17.60;48.10;;;;;;1596486;73;1466;-72
2023/12/21 02:46:36;;;;;;;;;;;17.60;48.10;;;;;;1599705;73;754;-72
2023/12/21 02:48:38;;;;;;;;;;;17.60;48.10;;;;;;1607540;73;756;-72
2023/12/21 02:50:39;;;;;;;;;;;17.60;48.10;;;;;;1600500;73;769;-72
2023/12/21 02:52:41;;;;;;;;;;;17.60;48.10;;;;;;1603477;73;809;-71
2023/12/21 02:54:43;;;;;;;;;;;17.60;48.10;;;;;;1588809;73;1185;-72
2023/12/21 02:56:45;;;;;;;;;;;17.50;48.10;;;;;;1620604;73;780;-67
2023/12/21 02:58:47;;;;;;;;;;;17.60;48.10;;;;;;1602537;73;809;-68
2023/12/21 03:00:49;;;;;;;;;;;17.60;48.10;;;;;;1599892;73;740;-72
2023/12/21 03:02:51;;;;;;;;;;;17.50;48.10;;;;;;1607205;73;1937;-72
2023/12/21 03:04:52;;;;;;;;;;;17.60;48.10;;;;;;1607183;73;1286;-70
2023/12/21 03:06:54;;;;;;;;;;;17.50;48.10;;;;;;1606361;73;642;-72
2023/12/21 03:08:56;;;;;;;;;;;17.60;48.10;;;;;;1609837;73;802;-71
2023/12/21 03:10:58;;;;;;;;;;;17.60;48.10;;;;;;1605479;73;768;-69
2023/12/21 03:13:00;;;;;;;;;;;17.50;48.10;;;;;;1602062;73;741;-71
2023/12/21 03:15:02;;;;;;;;;;;17.60;48.10;;;;;;1614590;73;1199;-67
2023/12/21 03:17:04;;;;;;;;;;;17.60;48.10;;;;;;1608512;73;763;-73
2023/12/21 03:19:06;;;;;;;;;;;17.60;48.10;;;;;;1607182;73;635;-71
2023/12/21 03:21:07;;;;;;;;;;;17.60;48.10;;;;;;1604227;73;1935;-73
2023/12/21 03:23:09;;;;;;;;;;;17.60;48.10;;;;;;1579676;74;1183;-71
2023/12/21 03:25:11;;;;;;;;;;;17.50;48.10;;;;;;1590330;73;1084;-71
2023/12/21 03:27:14;;;;;;;;;;;17.50;48.00;;;;;;1606982;73;719;-71
2023/12/21 03:29:16;;;;;;;;;;;17.60;48.10;;;;;;1600493;73;787;-68
2023/12/21 03:31:18;;;;;;;;;;;17.60;48.10;;;;;;1605155;73;787;-73
2023/12/21 03:33:19;;;;;;;;;;;17.60;48.10;;;;;;1606021;73;1130;-69
2023/12/21 03:35:21;;;;;;;;;;;17.50;48.10;;;;;;1609589;73;811;-71
2023/12/21 03:37:27;;;;;;;;;;;17.50;48.10;;;;;;1604678;73;775;-71
2023/12/21 03:39:29;;;;;;;;;;;17.60;48.00;;;;;;1602499;73;810;-72
2023/12/21 03:41:31;;;;;;;;;;;17.50;48.10;;;;;;1601913;73;1915;-71
2023/12/21 03:43:33;;;;;;;;;;;17.60;48.00;;;;;;1607019;73;1166;-72
2023/12/21 03:45:39;;;;;;;;;;;17.50;47.90;;;;;;1599484;73;737;-72
2023/12/21 03:47:38;;;;;;;;;;;17.60;48.00;;;;;;1609724;73;1545;-71
2023/12/21 03:49:40;;;;;;;;;;;17.50;48.00;;;;;;1598080;73;760;-71
2023/12/21 03:51:42;;;;;;;;;;;17.50;48.00;;;;;;1597922;73;805;-74
2023/12/21 03:53:44;;;;;;;;;;;17.60;48.00;;;;;;1608139;73;1159;-72
2023/12/21 03:55:46;;;;;;;;;;;17.50;48.00;;;;;;1605892;73;752;-71
2023/12/21 03:57:48;;;;;;;;;;;17.60;48.00;;;;;;1608644;73;491;-68
2023/12/21 03:59:50;;;;;;;;;;;17.60;48.00;;;;;;1611905;73;774;-71
2023/12/21 04:01:52;;;;;;;;;;;17.50;48.00;;;;;;1606427;73;1928;-73
2023/12/21 04:03:54;;;;;;;;;;;17.50;48.00;;;;;;1596209;73;1171;-72
2023/12/21 04:05:56;;;;;;;;;;;17.50;48.00;;;;;;1604178;73;779;-70
2023/12/21 04:07:58;;;;;;;;;;;17.50;48.00;;;;;;1609302;73;740;-70
2023/12/21 04:10:00;;;;;;;;;;;17.50;48.00;;;;;;1613985;73;789;-72
2023/12/21 04:12:02;;;;;;;;;;;17.50;48.00;;;;;;1595884;73;677;-69
2023/12/21 04:14:04;;;;;;;;;;;17.60;48.00;;;;;;1608390;73;1223;-71
2023/12/21 04:16:06;;;;;;;;;;;17.50;48.00;;;;;;1598765;73;769;-68
2023/12/21 04:18:09;;;;;;;;;;;17.50;48.00;;;;;;1601326;73;778;-72
2023/12/21 04:20:11;;;;;;;;;;;17.50;48.00;;;;;;1612598;73;756;-73
2023/12/21 04:22:13;;;;;;;;;;;17.60;48.00;;;;;;1599587;73;1928;-71
2023/12/21 04:24:15;;;;;;;;;;;17.50;48.00;;;;;;1601405;73;1167;-70
2023/12/21 04:26:20;;;;;;;;;;;17.60;48.00;;;;;;1594356;73;759;-69
2023/12/21 04:28:22;;;;;;;;;;;17.40;47.80;;;;;;1596877;73;632;-70
2023/12/21 04:30:24;;;;;;;;;;;17.50;48.00;;;;;;1587355;73;772;-71
2023/12/21 04:32:26;;;;;;;;;;;17.60;48.00;;;;;;1597797;73;776;-72
2023/12/21 04:34:28;;;;;;;;;;;17.50;47.90;;;;;;1605240;73;1154;-71
2023/12/21 04:36:30;;;;;;;;;;;17.60;48.00;;;;;;1598888;73;1431;-72
2023/12/21 04:38:32;;;;;;;;;;;17.50;47.90;;;;;;1600387;73;661;-69
2023/12/21 04:40:34;;;;;;;;;;;17.50;48.00;;;;;;1604821;73;766;-73
2023/12/21 04:42:36;;;;;;;;;;;17.50;47.90;;;;;;1596099;73;1933;-73
2023/12/21 04:44:37;;;;;;;;;;;17.50;47.90;;;;;;1606379;73;1154;-73
2023/12/21 04:46:39;;;;;;;;;;;17.50;48.00;;;;;;1590046;73;797;-73
2023/12/21 04:48:41;;;;;;;;;;;17.50;47.90;;;;;;1600708;73;795;-72
2023/12/21 04:50:43;;;;;;;;;;;17.60;47.90;;;;;;1597417;73;805;-68
2023/12/21 04:52:46;;;;;;;;;;;17.50;47.90;;;;;;1613368;73;758;-72
2023/12/21 04:54:48;;;;;;;;;;;17.50;48.00;;;;;;1600761;73;1163;-69
2023/12/21 04:56:50;;;;;;;;;;;17.50;47.90;;;;;;1613136;73;789;-72
2023/12/21 04:58:52;;;;;;;;;;;17.50;47.90;;;;;;1616160;73;634;-73
2023/12/21 05:00:54;;;;;;;;;;;17.50;47.90;;;;;;1592831;73;732;-73
2023/12/21 05:02:56;;;;;;;;;;;17.50;47.90;;;;;;1599664;73;1926;-73
2023/12/21 05:04:58;;;;;;;;;;;17.60;47.90;;;;;;1598655;73;1178;-72
2023/12/21 05:07:01;;;;;;;;;;;17.50;47.80;;;;;;1599370;73;680;-71
2023/12/21 05:09:03;;;;;;;;;;;17.50;47.80;;;;;;1592530;73;744;-74
2023/12/21 05:11:05;;;;;;;;;;;17.50;47.80;;;;;;1600497;73;779;-73
2023/12/21 05:13:07;;;;;;;;;;;17.50;47.80;;;;;;1605493;73;752;-73
2023/12/21 05:15:09;;;;;;;;;;;17.50;47.90;;;;;;1600265;73;1191;-72
2023/12/21 05:17:11;;;;;;;;;;;17.50;47.80;;;;;;1599758;73;738;-72
2023/12/21 05:19:12;;;;;;;;;;;17.50;47.80;;;;;;1602380;73;781;-72
2023/12/21 05:21:14;;;;;;;;;;;17.50;47.90;;;;;;1601173;73;758;-71
2023/12/21 05:23:16;;;;;;;;;;;17.50;47.80;;;;;;1610290;73;1931;-73
2023/12/21 05:25:18;;;;;;;;;;;17.50;47.90;;;;;;1613586;73;758;-70
2023/12/21 05:27:21;;;;;;;;;;;17.50;47.90;;;;;;1606905;73;812;-71
2023/12/21 05:29:23;;;;;;;;;;;17.60;47.80;;;;;;1588237;73;768;-72
2023/12/21 05:31:25;;;;;;;;;;;17.60;47.80;;;;;;1605347;73;741;-72
2023/12/21 05:33:27;;;;;;;;;;;17.50;47.90;;;;;;1598225;73;1457;-72
2023/12/21 05:35:29;;;;;;;;;;;17.50;47.80;;;;;;1597742;73;644;-73
2023/12/21 05:37:31;;;;;;;;;;;17.50;47.80;;;;;;1605615;73;736;-71
2023/12/21 05:39:35;;;;;;;;;;;17.50;47.90;;;;;;1602759;73;766;-72
2023/12/21 05:41:37;;;;;;;;;;;17.50;47.80;;;;;;1598972;73;741;-72
2023/12/21 05:43:39;;;;;;;;;;;17.50;47.80;;;;;;1604409;73;1925;-72
2023/12/21 05:45:40;;;;;;;;;;;17.50;47.80;;;;;;1600410;73;774;-72
2023/12/21 05:47:42;;;;;;;;;;;17.50;47.80;;;;;;1598932;73;793;-70
2023/12/21 05:49:44;;;;;;;;;;;17.50;47.80;;;;;;1592738;73;770;-73
2023/12/21 05:51:48;;;;;;;;;;;17.50;47.80;;;;;;1602253;73;1003;-69
2023/12/21 05:53:50;;;;;;;;;;;17.50;47.80;;;;;;1610305;73;1136;-70
2023/12/21 05:55:52;;;;;;;;;;;17.60;47.80;;;;;;1604329;73;730;-72
2023/12/21 05:57:53;;;;;;;;;;;17.50;47.80;;;;;;1599770;73;751;-70
2023/12/21 05:59:55;;;;;;;;;;;17.50;47.80;;;;;;1608778;73;767;-70
2023/12/21 06:01:57;;;;;;;;;;;17.50;47.80;;;;;;1596685;73;731;-69
2023/12/21 06:03:59;;;;;;;;;;;17.50;47.90;;;;;;1589346;73;1934;-72
2023/12/21 06:06:01;;;;;;;;;;;17.50;47.80;;;;;;1600022;73;767;-73
2023/12/21 06:08:03;;;;;;;;;;;17.50;47.80;;;;;;1608437;73;764;-74
2023/12/21 06:10:05;;;;;;;;;;;17.60;47.80;;;;;;1607857;73;806;-72
2023/12/21 06:12:07;;;;;;;;;;;17.50;47.80;;;;;;1608235;73;711;-72
2023/12/21 06:14:09;;;;;;;;;;;17.50;47.80;;;;;;1593933;73;1224;-70
2023/12/21 06:16:11;;;;;;;;;;;17.50;47.80;;;;;;1590622;73;789;-71
2023/12/21 06:18:13;;;;;;;;;;;17.50;47.80;;;;;;1600796;73;748;-72
2023/12/21 06:20:15;;;;;;;;;;;17.50;47.80;;;;;;1612212;73;785;-73
2023/12/21 06:22:18;;;;;;;;;;;17.50;47.80;;;;;;1596352;73;1933;-72
2023/12/21 06:24:20;;;;;;;;;;;17.50;47.80;;;;;;1586327;73;1223;-70
2023/12/21 06:26:21;;;;;;;;;;;17.50;47.80;;;;;;1592823;73;778;-71
2023/12/21 06:28:23;;;;;;;;;;;17.50;47.70;;;;;;1590223;73;751;-69
2023/12/21 06:30:25;;;;;;;;;;;17.50;47.70;;;;;;1592856;73;1968;-71
2023/12/21 06:32:27;;;;;;;;;;;17.50;47.80;;;;;;1606729;73;775;-72
2023/12/21 06:34:29;;;;;;;;;;;17.60;47.80;;;;;;1609039;73;1152;-73
2023/12/21 06:36:31;;;;;;;;;;;17.50;47.70;;;;;;1592623;73;774;-72
2023/12/21 06:38:33;;;;;;;;;;;17.50;47.70;;;;;;1609160;73;706;-72
2023/12/21 06:40:36;;;;;;;;;;;17.50;47.70;;;;;;1598806;73;768;-73
2023/12/21 06:42:38;;;;;;;;;;;17.50;47.70;;;;;;1604691;73;1927;-72
2023/12/21 06:44:39;;;;;;;;;;;17.50;47.70;;;;;;1615482;73;1150;-73
2023/12/21 06:46:42;;;;;;;;;;;17.50;47.70;;;;;;1596002;73;775;-70
2023/12/21 06:48:44;;;;;;;;;;;17.50;47.60;;;;;;1598638;73;741;-71
2023/12/21 06:50:45;;;;;;;;;;;17.50;47.60;;;;;;1597202;73;762;-71
2023/12/21 06:52:47;;;;;;;;;;;17.50;47.60;;;;;;1609890;73;763;-72
2023/12/21 06:54:49;;;;;;;;;;;17.50;47.70;;;;;;1603945;73;1156;-71
2023/12/21 06:56:51;;;;;;;;;;;17.50;47.70;;;;;;1593085;73;786;-72
2023/12/21 06:58:53;;;;;;;;;;;17.50;47.70;;;;;;1606790;73;769;-72
2023/12/21 07:00:55;;;;;;;;;;;17.50;47.70;;;;;;1605775;73;615;-71
2023/12/21 07:02:58;;;;;;;;;;;17.50;47.70;;;;;;1607650;73;1940;-68
2023/12/21 07:04:59;;;;;;;;;;;17.50;47.60;;;;;;1597647;73;1146;-71
2023/12/21 07:07:01;;;;;;;;;;;17.50;47.60;;;;;;1600631;73;834;-70
2023/12/21 07:09:03;;;;;;;;;;;17.50;47.60;;;;;;1617131;73;773;-70
2023/12/21 07:11:05;;;;;;;;;;;17.50;47.60;;;;;;1604178;73;779;-71
2023/12/21 07:13:07;;;;;;;;;;;17.50;47.60;;;;;;1596897;73;779;-71
2023/12/21 07:15:09;;;;;;;;;;;17.50;47.60;;;;;;1600162;72;1196;-71
2023/12/21 07:17:11;;;;;;;;;;;17.50;47.60;;;;;;1595133;73;728;-72
2023/12/21 07:19:13;;;;;;;;;;;17.50;47.60;;;;;;1595838;73;788;-72
2023/12/21 07:21:15;;;;;;;;;;;17.50;47.50;;;;;;1596417;73;743;-72
2023/12/21 07:23:19;;;;;;;;;;;17.50;47.60;;;;;;1598986;73;1941;-72
2023/12/21 07:25:21;;;;;;;;;;;17.50;47.60;;;;;;1600572;73;1541;-73
2023/12/21 07:27:24;;;;;;;;;;;17.50;47.60;;;;;;1598920;73;686;-70
2023/12/21 07:29:26;;;;;;;;;;;17.50;47.60;;;;;;1587244;73;723;-70
2023/12/21 07:31:28;;;;;;;;;;;17.50;47.60;;;;;;1598641;73;811;-72
2023/12/21 07:33:31;;;;;;;;;;;17.40;47.50;;;;;;1592181;73;1170;-72
2023/12/21 07:35:33;;;;;;;;;;;17.50;47.60;;;;;;1609905;73;712;-72
2023/12/21 07:37:34;;;;;;;;;;;17.50;47.50;;;;;;1601807;73;793;-70
2023/12/21 07:39:36;;;;;;;;;;;17.50;47.60;;;;;;1603565;73;724;-72
2023/12/21 07:41:38;;;;;;;;;;;17.50;47.60;;;;;;1595408;73;792;-70
2023/12/21 07:43:41;;;;;;;;;;;17.50;47.50;;;;;;1597149;73;1931;-73
2023/12/21 07:45:43;;;;;;;;;;;17.50;47.60;;;;;;1610275;73;797;-73
2023/12/21 07:47:44;;;;;;;;;;;17.50;47.60;;;;;;1597995;73;771;-73
2023/12/21 07:49:46;;;;;;;;;;;17.50;47.50;;;;;;1596564;73;797;-72
2023/12/21 07:51:48;;;;;;;;;;;17.50;47.50;;;;;;1602926;73;736;-73
2023/12/21 07:53:50;;;;;;;;;;;17.50;47.60;;;;;;1604494;73;1159;-70
2023/12/21 07:55:52;;;;;;;;;;;17.50;47.50;;;;;;1598229;73;757;-70
2023/12/21 07:57:54;;;;;;;;;;;17.50;47.50;;;;;;1602937;73;767;-70
2023/12/21 07:59:56;;;;;;;;;;;17.50;47.50;;;;;;1606545;73;724;-70
2023/12/21 08:01:57;;;;;;;;;;;17.50;47.50;;;;;;1598788;73;759;-69
2023/12/21 08:03:59;;;;;;;;;;;17.50;47.50;;;;;;1600137;73;1933;-72
2023/12/21 08:06:02;;;;;;;;;;;17.50;47.40;;;;;;1599920;73;778;-73
2023/12/21 08:08:04;;;;;;;;;;;17.50;47.50;;;;;;1600408;73;755;-73
2023/12/21 08:10:07;;;;;;;;;;;17.50;47.50;;;;;;1602128;73;811;-73
2023/12/21 08:12:09;;;;;;;;;;;17.50;47.50;;;;;;1606400;73;1581;-70
2023/12/21 08:14:11;;;;;;;;;;;17.50;47.50;;;;;;1603999;73;1238;-71
2023/12/21 08:16:13;;;;;;;;;;;17.50;47.50;;;;;;1609358;73;766;-72
2023/12/21 08:18:15;;;;;;;;;;;17.50;47.50;;;;;;1612021;73;756;-71
2023/12/21 08:20:17;;;;;;;;;;;17.50;47.50;;;;;;1597891;73;775;-73
2023/12/21 08:22:19;;;;;;;;;;;17.50;47.50;;;;;;1597996;73;1458;-71
2023/12/21 08:24:21;;;;;;;;;;;17.50;47.50;;;;;;1607337;73;1944;-72
2023/12/21 08:26:22;;;;;;;;;;;17.50;47.50;;;;;;1604684;73;813;-72
2023/12/21 08:28:26;;;;;;;;;;;17.50;47.50;;;;;;1598697;73;743;-71
2023/12/21 08:30:28;;;;;;;;;;;17.50;47.50;;;;;;1593537;73;1546;-72
2023/12/21 08:32:30;;;;;;;;;;;17.50;47.40;;;;;;1603047;73;742;-69
2023/12/21 08:34:32;;;;;;;;;;;17.50;47.50;;;;;;1607872;73;1161;-73
2023/12/21 08:36:33;;;;;;;;;;;17.50;47.50;;;;;;1606117;72;803;-72
2023/12/21 08:38:35;;;;;;;;;;;17.50;47.50;;;;;;1598658;73;823;-71
2023/12/21 08:40:37;;;;;;;;;;;17.50;47.50;;;;;;1601107;73;796;-71
2023/12/21 08:42:40;;;;;;;;;;;17.50;47.50;;;;;;1598686;73;823;-72
2023/12/21 08:44:42;;;;;;;;;;;17.50;47.40;;;;;;1612100;73;1917;-69
2023/12/21 08:46:44;;;;;;;;;;;17.50;47.40;;;;;;1614274;73;763;-72
2023/12/21 08:48:46;;;;;;;;;;;17.50;47.40;;;;;;1610243;73;942;-71
2023/12/21 08:50:48;;;;;;;;;;;17.50;47.40;;;;;;1589866;73;1007;-70
2023/12/21 08:52:50;;;;;;;;;;;17.50;47.40;;;;;;1593335;73;752;-70
2023/12/21 08:54:52;;;;;;;;;;;17.50;47.40;;;;;;1612435;73;1158;-70
2023/12/21 08:56:54;;;;;;;;;;;17.50;47.50;;;;;;1600983;73;680;-72
2023/12/21 08:58:56;;;;;;;;;;;17.50;47.50;;;;;;1613721;73;750;-72
2023/12/21 09:00:58;;;;;;;;;;;17.50;47.50;;;;;;1620659;73;546;-72
2023/12/21 09:03:00;;;;;;;;;;;17.50;47.40;;;;;;1602163;73;740;-72
2023/12/21 09:05:02;;;;;;;;;;;17.50;47.40;;;;;;1601209;73;1948;-70
2023/12/21 09:07:04;;;;;;;;;;;17.50;47.40;;;;;;1618044;73;780;-72
2023/12/21 09:09:06;;;;;;;;;;;17.50;47.40;;;;;;1608013;73;747;-72
2023/12/21 09:11:08;;;;;;;;;;;17.40;47.30;;;;;;1604374;73;666;-69
2023/12/21 09:13:10;;;;;;;;;;;17.50;47.30;;;;;;1597290;73;774;-72
2023/12/21 09:15:12;;;;;;;;;;;17.50;47.30;;;;;;1607313;72;1195;-70
2023/12/21 09:17:14;;;;;;;;;;;17.50;47.30;;;;;;1612069;73;1398;-71
2023/12/21 09:19:16;;;;;;;;;;;17.50;47.40;;;;;;1601667;73;794;-73
2023/12/21 09:21:18;;;;;;;;;;;17.50;47.40;;;;;;1611519;73;679;-73
2023/12/21 09:23:20;;;;;;;;;;;17.50;47.30;;;;;;1611903;73;1921;-70
2023/12/21 09:25:22;;;;;;;;;;;17.50;47.30;;;;;;1616274;73;789;-73
2023/12/21 09:27:27;;;;;;;;;;;17.50;47.30;;;;;;1597032;73;729;-72
2023/12/21 09:29:27;;;;;;;;;;;17.50;47.30;;;;;;1590234;73;1180;-73
2023/12/21 09:31:29;;;;;;;;;;;17.40;47.20;;;;;;1599282;73;771;-72
2023/12/21 09:33:33;;;;;;;;;;;17.50;47.30;;;;;;1609853;73;1162;-72
2023/12/21 09:35:35;;;;;;;;;;;17.50;47.30;;;;;;1606649;73;765;-73
2023/12/21 09:37:37;;;;;;;;;;;17.40;47.20;;;;;;1612077;72;756;-72
2023/12/21 09:39:38;;;;;;;;;;;17.50;47.30;;;;;;1611906;73;771;-73
2023/12/21 09:41:40;;;;;;;;;;;17.50;47.30;;;;;;1589526;73;793;-72
2023/12/21 09:43:43;;;;;;;;;;;17.50;47.30;;;;;;1596603;73;1924;-70
2023/12/21 09:45:45;;;;;;;;;;;17.50;47.30;;;;;;1596536;73;783;-70
2023/12/21 09:47:48;;;;;;;;;;;17.50;47.30;;;;;;1591350;73;757;-70
2023/12/21 09:49:54;;;;;;;;;;;17.40;47.20;;;;;;1599377;73;767;-72
2023/12/21 09:51:54;;;;;;;;;;;17.50;47.30;;;;;;1607809;72;1234;-68
2023/12/21 09:53:56;;;;;;;;;;;17.50;47.30;;;;;;1603926;73;1140;-71
2023/12/21 09:55:58;;;;;;;;;;;17.50;47.30;;;;;;1611299;73;723;-69
2023/12/21 09:57:59;;;;;;;;;;;17.50;47.40;;;;;;1612639;73;762;-70
2023/12/21 10:00:02;;;;;;;;;;;17.50;47.30;;;;;;1606913;73;851;-72
2023/12/21 10:02:11;;;;;;;;;;;17.50;47.30;;;;;;1608842;73;769;-72
2023/12/21 10:04:08;;;;;;;;;;;17.50;47.30;;;;;;1593754;73;1945;-72
2023/12/21 10:06:09;;;;;;;;;;;17.40;47.20;;;;;;1595022;73;777;-74
2023/12/21 10:08:11;;;;;;;;;;;17.40;47.20;;;;;;1603035;73;780;-70
2023/12/21 10:10:14;;;;;;;;;;;17.40;47.20;;;;;;1606132;73;745;-72
2023/12/21 10:12:16;;;;;;;;;;;17.50;47.30;;;;;;1596753;73;776;-70
2023/12/21 10:14:19;;;;;;;;;;;17.40;47.20;;;;;;1602905;73;1481;-72
2023/12/21 10:16:21;;;;;;;;;;;17.50;47.30;;;;;;1590971;73;845;-70
2023/12/21 10:18:23;;;;;;;;;;;17.50;47.30;;;;;;1590543;73;746;-70
2023/12/21 10:20:26;;;;;;;;;;;17.50;47.30;;;;;;1609931;73;744;-72
2023/12/21 10:22:28;;;;;;;;;;;17.50;47.30;;;;;;1602355;73;784;-71
2023/12/21 10:24:31;;;;;;;;;;;17.50;47.30;;;;;;1605617;73;1931;-73
2023/12/21 10:26:35;;;;;;;;;;;17.50;47.30;;;;;;1595942;73;763;-72
2023/12/21 10:28:37;;;;;;;;;;;17.50;47.30;;;;;;1590625;73;934;-73
2023/12/21 10:30:39;;;;;;;;;;;17.40;47.20;;;;;;1585861;73;800;-72
2023/12/21 10:32:40;;;;;;;;;;;17.50;47.30;;;;;;1592237;73;798;-73
2023/12/21 10:34:42;;;;;;;;;;;17.50;47.30;;;;;;1606791;73;1140;-70
2023/12/21 10:36:44;;;;;;;;;;;17.50;47.30;;;;;;1594327;73;751;-72
2023/12/21 10:38:46;;;;;;;;;;;17.40;47.10;;;;;;1600317;73;684;-73
2023/12/21 10:40:49;;;;;;;;;;;17.40;47.20;;;;;;1603947;73;783;-71
2023/12/21 10:42:56;;;;;;;;;;;17.50;47.30;;;;;;1596170;73;743;-73
2023/12/21 10:44:54;;;;;;;;;;;17.50;47.30;;;;;;1603096;72;1914;-73
2023/12/21 10:46:56;;;;;;;;;;;17.50;47.30;;;;;;1569408;74;785;-73
2023/12/21 10:49:01;;;;;;;;;;;17.50;47.30;;;;;;1611508;73;767;-73
2023/12/21 10:51:04;;;;;;;;;;;17.50;47.30;;;;;;1587973;73;706;-73
2023/12/21 10:53:09;;;;;;;;;;;17.50;47.30;;;;;;1594304;73;771;-73
2023/12/21 10:55:10;;;;;;;;;;;17.40;47.10;;;;;;1599278;73;1167;-71
2023/12/21 10:57:12;;;;;;;;;;;17.50;47.20;;;;;;1593061;73;664;-73
2023/12/21 10:59:14;;;;;;;;;;;17.50;47.20;;;;;;1600755;73;790;-73
2023/12/21 11:01:16;;;;;;;;;;;17.50;47.30;;;;;;1602221;73;704;-73
2023/12/21 11:03:19;;;;;;;;;;;17.50;47.30;;;;;;1601295;73;804;-73
2023/12/21 11:05:22;;;;;;;;;;;17.50;47.20;;;;;;1590131;73;1936;-72
2023/12/21 11:07:26;;;;;;;;;;;17.40;47.10;;;;;;1610704;73;784;-70
2023/12/21 11:09:31;;;;;;;;;;;17.50;47.30;;;;;;1606068;73;733;-72
2023/12/21 11:11:31;;;;;;;;;;;17.50;47.30;;;;;;1596412;72;1575;-72
2023/12/21 11:13:33;;;;;;;;;;;17.50;47.30;;;;;;1596606;73;1147;-72
2023/12/21 11:15:36;;;;;;;;;;;17.50;47.30;;;;;;1605197;73;784;-72
2023/12/21 11:17:37;;;;;;;;;;;17.50;47.30;;;;;;1596869;73;800;-73
2023/12/21 11:19:39;;;;;;;;;;;17.50;47.30;;;;;;1601005;73;799;-72
2023/12/21 11:21:41;;;;;;;;;;;17.40;47.10;;;;;;1606199;73;795;-71
2023/12/21 11:23:44;;;;;;;;;;;17.50;47.30;;;;;;1607626;73;1202;-73
2023/12/21 11:25:59;;;;;;;;;;;17.50;47.20;;;;;;1593018;73;1929;-72
2023/12/21 11:28:02;;;;;;;;;;;17.50;47.20;;;;;;1597777;73;762;-73
2023/12/21 11:30:14;;;;;;;;;;;17.40;47.10;;;;;;1591867;73;737;-72
2023/12/21 11:32:25;;;;;;;;;;;17.50;47.20;;;;;;1598455;73;665;-72
2023/12/21 11:34:37;;;;;;;;;;;17.50;47.20;;;;;;1606295;73;1140;-72
2023/12/21 11:36:39;;;;;;;;;;;17.40;47.10;;;;;;1591607;73;772;-72
2023/12/21 11:38:45;;;;;;;;;;;17.50;47.20;;;;;;1604149;73;775;-73
2023/12/21 11:40:47;;;;;;;;;;;17.40;47.10;;;;;;1592161;73;1318;-70
2023/12/21 11:42:49;;;;;;;;;;;17.50;47.30;;;;;;1601543;73;721;-73
2023/12/21 11:44:53;;;;;;;;;;;17.50;47.10;;;;;;1616547;73;1931;-72
2023/12/21 11:47:00;;;;;;;;;;;17.50;47.10;;;;;;1601344;73;1606;-74
2023/12/21 11:49:04;;;;;;;;;;;17.40;47.10;;;;;;1596664;73;942;-71
2023/12/21 11:51:06;;;;;;;;;;;17.50;47.10;;;;;;1597532;73;764;-70
2023/12/21 11:53:09;;;;;;;;;;;17.50;47.20;;;;;;1586860;73;799;-73
2023/12/21 11:55:11;;;;;;;;;;;17.40;47.00;;;;;;1606711;73;1642;-73
2023/12/21 11:57:14;;;;;;;;;;;17.50;47.10;;;;;;1604903;73;799;-67
2023/12/21 11:59:16;;;;;;;;;;;17.50;47.20;;;;;;1601012;73;746;-70
2023/12/21 12:01:22;;;;;;;;;;;17.40;46.90;;;;;;1594190;73;735;-70
2023/12/21 12:03:26;;;;;;;;;;;17.50;47.10;;;;;;1602521;73;1179;-72
2023/12/21 12:05:28;;;;;;;;;;;17.50;47.10;;;;;;1609929;72;1943;-72
2023/12/21 12:07:32;;;;;;;;;;;17.50;47.10;;;;;;1599516;73;1470;-72
2023/12/21 12:09:34;;;;;;;;;;;17.50;47.10;;;;;;1606822;73;935;-73